sensor_id;sensor_type;location;lat;lon;timestamp;temperature;humidity
1702;DHT22;848;48.354;10.064;2023-05-28T00:01:26;11.50;99.90
1702;DHT22;848;48.354;10.064;2023-05-28T00:03:55;11.40;99.90
1702;DHT22;848;48.354;10.064;2023-05-28T00:06:22;11.40;99.90
1702;DHT22;848;48.354;10.064;2023-05-28T00:08:48;11.40;99.90
1702;DHT22;848;48.354;10.064;2023-05-28T00:11:15;11.40;99.90
1702;DHT22;848;48.354;10.064;2023-05-28T00:13:42;11.40;99.90
1702;DHT22;848;48.354;10.064;2023-05-28T00:16:09;11.30;99.90
1702;DHT22;848;48.354;10.064;2023-05-28T00:18:38;11.20;99.90
1702;DHT22;848;48.354;10.064;2023-05-28T00:21:06;11.10;99.90
1702;DHT22;848;48.354;10.064;2023-05-28T00:23:33;11.10;99.90
1702;DHT22;848;48.354;10.064;2023-05-28T00:26:00;11.00;99.90
1702;DHT22;848;48.354;10.064;2023-05-28T00:28:27;11.00;99.90
1702;DHT22;848;48.354;10.064;2023-05-28T00:30:54;11.00;99.90
1702;DHT22;848;48.354;10.064;2023-05-28T00:33:21;11.00;99.90
1702;DHT22;848;48.354;10.064;2023-05-28T00:35:48;11.00;99.90
1702;DHT22;848;48.354;10.064;2023-05-28T00:38:21;11.00;99.90
1702;DHT22;848;48.354;10.064;2023-05-28T00:40:48;10.90;99.90
1702;DHT22;848;48.354;10.064;2023-05-28T00:43:15;10.80;99.90
1702;DHT22;848;48.354;10.064;2023-05-28T00:45:44;10.80;99.90
1702;DHT22;848;48.354;10.064;2023-05-28T00:48:13;10.80;99.90
1702;DHT22;848;48.354;10.064;2023-05-28T00:50:42;10.80;99.90
1702;DHT22;848;48.354;10.064;2023-05-28T00:53:11;10.80;99.90
1702;DHT22;848;48.354;10.064;2023-05-28T00:55:40;10.70;99.90
1702;DHT22;848;48.354;10.064;2023-05-28T00:58:07;10.70;99.90
1702;DHT22;848;48.354;10.064;2023-05-28T01:00:36;10.60;99.90
1702;DHT22;848;48.354;10.064;2023-05-28T01:03:03;10.50;99.90
1702;DHT22;848;48.354;10.064;2023-05-28T01:05:31;10.50;99.90
1702;DHT22;848;48.354;10.064;2023-05-28T01:08:00;10.60;99.90
1702;DHT22;848;48.354;10.064;2023-05-28T01:10:27;10.60;99.90
1702;DHT22;848;48.354;10.064;2023-05-28T01:12:56;10.60;99.90
1702;DHT22;848;48.354;10.064;2023-05-28T01:15:23;10.50;99.90
1702;DHT22;848;48.354;10.064;2023-05-28T01:17:52;10.50;99.90
1702;DHT22;848;48.354;10.064;2023-05-28T01:20:21;10.50;99.90
1702;DHT22;848;48.354;10.064;2023-05-28T01:22:53;10.50;99.90
1702;DHT22;848;48.354;10.064;2023-05-28T01:25:23;10.40;99.90
1702;DHT22;848;48.354;10.064;2023-05-28T01:27:50;10.50;99.90
1702;DHT22;848;48.354;10.064;2023-05-28T01:30:17;10.40;99.90
1702;DHT22;848;48.354;10.064;2023-05-28T01:32:44;10.40;99.90
1702;DHT22;848;48.354;10.064;2023-05-28T01:35:11;10.40;99.90
1702;DHT22;848;48.354;10.064;2023-05-28T01:37:41;10.40;99.90
1702;DHT22;848;48.354;10.064;2023-05-28T01:40:11;10.40;99.90
1702;DHT22;848;48.354;10.064;2023-05-28T01:42:41;10.40;99.90
1702;DHT22;848;48.354;10.064;2023-05-28T01:45:10;10.30;99.90
1702;DHT22;848;48.354;10.064;2023-05-28T01:47:39;10.30;99.90
1702;DHT22;848;48.354;10.064;2023-05-28T01:50:07;10.40;99.90
1702;DHT22;848;48.354;10.064;2023-05-28T01:52:35;10.40;99.90
1702;DHT22;848;48.354;10.064;2023-05-28T01:55:02;10.30;99.90
1702;DHT22;848;48.354;10.064;2023-05-28T01:57:30;10.30;99.90
1702;DHT22;848;48.354;10.064;2023-05-28T01:59:58;10.30;99.90
1702;DHT22;848;48.354;10.064;2023-05-28T02:02:26;10.30;99.90
1702;DHT22;848;48.354;10.064;2023-05-28T02:04:53;10.30;99.90
1702;DHT22;848;48.354;10.064;2023-05-28T02:07:20;10.30;99.90
1702;DHT22;848;48.354;10.064;2023-05-28T02:09:47;10.30;99.90
1702;DHT22;848;48.354;10.064;2023-05-28T02:12:14;10.30;99.90
1702;DHT22;848;48.354;10.064;2023-05-28T02:14:41;10.30;99.90
1702;DHT22;848;48.354;10.064;2023-05-28T02:17:09;10.30;99.90
1702;DHT22;848;48.354;10.064;2023-05-28T02:19:38;10.40;99.90
1702;DHT22;848;48.354;10.064;2023-05-28T02:22:04;10.40;99.90
1702;DHT22;848;48.354;10.064;2023-05-28T02:24:37;10.40;99.90
1702;DHT22;848;48.354;10.064;2023-05-28T02:27:04;10.40;99.90
1702;DHT22;848;48.354;10.064;2023-05-28T02:29:31;10.50;99.90
1702;DHT22;848;48.354;10.064;2023-05-28T02:31:59;10.40;99.90
1702;DHT22;848;48.354;10.064;2023-05-28T02:34:27;10.40;99.90
1702;DHT22;848;48.354;10.064;2023-05-28T02:36:54;10.40;99.90
1702;DHT22;848;48.354;10.064;2023-05-28T02:39:21;10.40;99.90
1702;DHT22;848;48.354;10.064;2023-05-28T02:41:48;10.40;99.90
1702;DHT22;848;48.354;10.064;2023-05-28T02:44:15;10.50;99.90
1702;DHT22;848;48.354;10.064;2023-05-28T02:46:42;10.50;99.90
1702;DHT22;848;48.354;10.064;2023-05-28T02:49:08;10.50;99.90
1702;DHT22;848;48.354;10.064;2023-05-28T02:51:37;10.50;99.90
1702;DHT22;848;48.354;10.064;2023-05-28T02:54:04;10.50;99.90
1702;DHT22;848;48.354;10.064;2023-05-28T02:56:31;10.60;99.90
1702;DHT22;848;48.354;10.064;2023-05-28T02:58:58;10.60;99.90
1702;DHT22;848;48.354;10.064;2023-05-28T03:01:25;10.60;99.90
1702;DHT22;848;48.354;10.064;2023-05-28T03:03:52;10.60;99.90
1702;DHT22;848;48.354;10.064;2023-05-28T03:06:19;10.70;99.90
1702;DHT22;848;48.354;10.064;2023-05-28T03:08:48;10.80;99.90
1702;DHT22;848;48.354;10.064;2023-05-28T03:11:15;10.90;99.90
1702;DHT22;848;48.354;10.064;2023-05-28T03:13:41;10.90;99.90
1702;DHT22;848;48.354;10.064;2023-05-28T03:16:08;10.90;99.90
1702;DHT22;848;48.354;10.064;2023-05-28T03:18:35;11.10;99.90
1702;DHT22;848;48.354;10.064;2023-05-28T03:21:02;11.10;99.90
1702;DHT22;848;48.354;10.064;2023-05-28T03:23:29;11.10;99.90
1702;DHT22;848;48.354;10.064;2023-05-28T03:25:58;11.20;99.90
1702;DHT22;848;48.354;10.064;2023-05-28T03:28:25;11.20;99.90
1702;DHT22;848;48.354;10.064;2023-05-28T03:33:20;11.10;99.90
1702;DHT22;848;48.354;10.064;2023-05-28T03:35:47;11.10;99.90
1702;DHT22;848;48.354;10.064;2023-05-28T03:38:14;11.10;99.90
1702;DHT22;848;48.354;10.064;2023-05-28T03:40:41;11.10;99.90
1702;DHT22;848;48.354;10.064;2023-05-28T03:43:09;11.00;99.90
1702;DHT22;848;48.354;10.064;2023-05-28T03:45:36;11.00;99.90
1702;DHT22;848;48.354;10.064;2023-05-28T03:48:04;11.00;99.90
1702;DHT22;848;48.354;10.064;2023-05-28T03:50:32;10.90;99.90
1702;DHT22;848;48.354;10.064;2023-05-28T03:52:58;10.90;99.90
1702;DHT22;848;48.354;10.064;2023-05-28T03:55:25;10.90;99.90
1702;DHT22;848;48.354;10.064;2023-05-28T03:57:52;10.90;99.90
1702;DHT22;848;48.354;10.064;2023-05-28T04:00:20;10.90;99.90
1702;DHT22;848;48.354;10.064;2023-05-28T04:02:47;10.90;99.90
1702;DHT22;848;48.354;10.064;2023-05-28T04:05:14;11.00;99.90
1702;DHT22;848;48.354;10.064;2023-05-28T04:07:41;11.10;99.90
1702;DHT22;848;48.354;10.064;2023-05-28T04:10:09;11.20;99.90
1702;DHT22;848;48.354;10.064;2023-05-28T04:12:36;11.30;99.90
1702;DHT22;848;48.354;10.064;2023-05-28T04:15:03;11.40;99.90
1702;DHT22;848;48.354;10.064;2023-05-28T04:17:32;11.50;99.90
1702;DHT22;848;48.354;10.064;2023-05-28T04:19:59;11.50;99.90
1702;DHT22;848;48.354;10.064;2023-05-28T04:22:25;11.60;99.90
1702;DHT22;848;48.354;10.064;2023-05-28T04:24:52;11.70;99.90
1702;DHT22;848;48.354;10.064;2023-05-28T04:27:21;11.80;99.90
1702;DHT22;848;48.354;10.064;2023-05-28T04:29:48;11.80;99.90
1702;DHT22;848;48.354;10.064;2023-05-28T04:32:17;11.80;99.90
1702;DHT22;848;48.354;10.064;2023-05-28T04:34:46;11.90;99.90
1702;DHT22;848;48.354;10.064;2023-05-28T04:37:13;11.90;99.90
1702;DHT22;848;48.354;10.064;2023-05-28T04:39:40;11.90;99.90
1702;DHT22;848;48.354;10.064;2023-05-28T04:42:07;11.90;99.90
1702;DHT22;848;48.354;10.064;2023-05-28T04:44:34;12.00;99.90
1702;DHT22;848;48.354;10.064;2023-05-28T04:47:02;12.10;99.90
1702;DHT22;848;48.354;10.064;2023-05-28T04:49:29;12.10;99.90
1702;DHT22;848;48.354;10.064;2023-05-28T04:51:58;12.20;99.90
1702;DHT22;848;48.354;10.064;2023-05-28T04:54:25;12.20;99.90
1702;DHT22;848;48.354;10.064;2023-05-28T04:56:53;12.30;99.90
1702;DHT22;848;48.354;10.064;2023-05-28T04:59:19;12.40;99.90
1702;DHT22;848;48.354;10.064;2023-05-28T05:01:46;12.50;99.90
1702;DHT22;848;48.354;10.064;2023-05-28T05:04:13;12.60;99.90
1702;DHT22;848;48.354;10.064;2023-05-28T05:06:40;12.60;99.90
1702;DHT22;848;48.354;10.064;2023-05-28T05:09:09;12.80;99.90
1702;DHT22;848;48.354;10.064;2023-05-28T05:11:36;12.80;99.90
1702;DHT22;848;48.354;10.064;2023-05-28T05:14:03;12.80;99.90
1702;DHT22;848;48.354;10.064;2023-05-28T05:16:30;13.00;99.90
1702;DHT22;848;48.354;10.064;2023-05-28T05:18:57;13.00;99.90
1702;DHT22;848;48.354;10.064;2023-05-28T05:21:24;13.10;99.90
1702;DHT22;848;48.354;10.064;2023-05-28T05:23:51;13.10;99.90
1702;DHT22;848;48.354;10.064;2023-05-28T05:26:19;13.10;99.90
1702;DHT22;848;48.354;10.064;2023-05-28T05:28:46;13.20;99.90
1702;DHT22;848;48.354;10.064;2023-05-28T05:31:13;13.30;99.90
1702;DHT22;848;48.354;10.064;2023-05-28T05:33:41;13.40;99.90
1702;DHT22;848;48.354;10.064;2023-05-28T05:36:08;13.40;99.90
1702;DHT22;848;48.354;10.064;2023-05-28T05:38:36;13.40;99.90
1702;DHT22;848;48.354;10.064;2023-05-28T05:41:03;13.50;99.90
1702;DHT22;848;48.354;10.064;2023-05-28T05:43:31;13.60;99.90
1702;DHT22;848;48.354;10.064;2023-05-28T05:45:58;13.70;99.90
1702;DHT22;848;48.354;10.064;2023-05-28T05:48:25;13.80;99.90
1702;DHT22;848;48.354;10.064;2023-05-28T05:50:53;13.90;99.90
1702;DHT22;848;48.354;10.064;2023-05-28T05:53:21;14.00;99.90
1702;DHT22;848;48.354;10.064;2023-05-28T05:55:48;14.10;99.90
1702;DHT22;848;48.354;10.064;2023-05-28T05:58:15;14.30;99.90
1702;DHT22;848;48.354;10.064;2023-05-28T06:00:43;14.40;99.90
1702;DHT22;848;48.354;10.064;2023-05-28T06:03:10;14.50;99.90
1702;DHT22;848;48.354;10.064;2023-05-28T06:05:37;14.50;99.90
1702;DHT22;848;48.354;10.064;2023-05-28T06:08:04;14.60;99.90
1702;DHT22;848;48.354;10.064;2023-05-28T06:10:31;14.70;99.90
1702;DHT22;848;48.354;10.064;2023-05-28T06:12:58;15.00;99.90
1702;DHT22;848;48.354;10.064;2023-05-28T06:15:27;15.20;99.90
1702;DHT22;848;48.354;10.064;2023-05-28T06:17:55;15.60;99.90
1702;DHT22;848;48.354;10.064;2023-05-28T06:20:22;16.50;99.90
1702;DHT22;848;48.354;10.064;2023-05-28T06:22:50;17.60;99.90
1702;DHT22;848;48.354;10.064;2023-05-28T06:25:17;18.50;99.90
1702;DHT22;848;48.354;10.064;2023-05-28T06:27:44;19.60;99.90
1702;DHT22;848;48.354;10.064;2023-05-28T06:30:12;20.30;99.90
1702;DHT22;848;48.354;10.064;2023-05-28T06:32:39;20.60;99.90
1702;DHT22;848;48.354;10.064;2023-05-28T06:35:08;20.80;99.90
1702;DHT22;848;48.354;10.064;2023-05-28T06:37:35;21.10;99.90
1702;DHT22;848;48.354;10.064;2023-05-28T06:40:02;21.50;99.90
1702;DHT22;848;48.354;10.064;2023-05-28T06:42:31;22.20;99.90
1702;DHT22;848;48.354;10.064;2023-05-28T06:44:58;22.80;99.90
1702;DHT22;848;48.354;10.064;2023-05-28T06:47:25;23.00;99.90
1702;DHT22;848;48.354;10.064;2023-05-28T06:49:53;23.10;99.90
1702;DHT22;848;48.354;10.064;2023-05-28T06:52:21;23.10;99.90
1702;DHT22;848;48.354;10.064;2023-05-28T06:54:49;23.40;99.90
1702;DHT22;848;48.354;10.064;2023-05-28T06:57:16;23.80;99.90
1702;DHT22;848;48.354;10.064;2023-05-28T06:59:43;24.00;99.90
1702;DHT22;848;48.354;10.064;2023-05-28T07:02:10;24.10;99.90
1702;DHT22;848;48.354;10.064;2023-05-28T07:04:37;24.20;99.90
1702;DHT22;848;48.354;10.064;2023-05-28T07:07:04;24.40;99.90
1702;DHT22;848;48.354;10.064;2023-05-28T07:09:33;24.40;99.90
1702;DHT22;848;48.354;10.064;2023-05-28T07:12:00;24.80;99.90
1702;DHT22;848;48.354;10.064;2023-05-28T07:14:27;25.00;99.90
1702;DHT22;848;48.354;10.064;2023-05-28T07:16:53;25.30;99.90
1702;DHT22;848;48.354;10.064;2023-05-28T07:19:29;25.00;99.90
1702;DHT22;848;48.354;10.064;2023-05-28T07:21:56;25.10;99.90
1702;DHT22;848;48.354;10.064;2023-05-28T07:24:23;25.10;99.90
1702;DHT22;848;48.354;10.064;2023-05-28T07:26:52;25.10;99.90
1702;DHT22;848;48.354;10.064;2023-05-28T07:29:18;24.50;99.90
1702;DHT22;848;48.354;10.064;2023-05-28T07:31:45;23.70;99.90
1702;DHT22;848;48.354;10.064;2023-05-28T07:34:12;23.70;99.90
1702;DHT22;848;48.354;10.064;2023-05-28T07:36:39;23.90;99.90
1702;DHT22;848;48.354;10.064;2023-05-28T07:39:06;24.40;99.90
1702;DHT22;848;48.354;10.064;2023-05-28T07:41:34;24.40;99.90
1702;DHT22;848;48.354;10.064;2023-05-28T07:44:02;24.70;99.90
1702;DHT22;848;48.354;10.064;2023-05-28T07:46:32;25.20;99.90
1702;DHT22;848;48.354;10.064;2023-05-28T07:48:59;25.40;99.90
1702;DHT22;848;48.354;10.064;2023-05-28T07:51:26;25.10;99.90
1702;DHT22;848;48.354;10.064;2023-05-28T07:53:52;25.20;99.90
1702;DHT22;848;48.354;10.064;2023-05-28T07:56:20;25.00;99.90
1702;DHT22;848;48.354;10.064;2023-05-28T07:58:47;24.80;99.90
1702;DHT22;848;48.354;10.064;2023-05-28T08:01:15;24.80;99.90
1702;DHT22;848;48.354;10.064;2023-05-28T08:03:42;24.60;99.90
1702;DHT22;848;48.354;10.064;2023-05-28T08:06:09;24.70;99.90
1702;DHT22;848;48.354;10.064;2023-05-28T08:08:36;24.70;99.90
1702;DHT22;848;48.354;10.064;2023-05-28T08:11:03;24.70;99.90
1702;DHT22;848;48.354;10.064;2023-05-28T08:13:30;24.90;99.90
1702;DHT22;848;48.354;10.064;2023-05-28T08:15:58;24.40;99.90
1702;DHT22;848;48.354;10.064;2023-05-28T08:18:27;24.40;99.90
1702;DHT22;848;48.354;10.064;2023-05-28T08:20:54;24.70;99.90
1702;DHT22;848;48.354;10.064;2023-05-28T08:23:21;24.80;99.90
1702;DHT22;848;48.354;10.064;2023-05-28T08:25:48;24.70;99.90
1702;DHT22;848;48.354;10.064;2023-05-28T08:28:16;24.70;99.90
1702;DHT22;848;48.354;10.064;2023-05-28T08:30:43;24.30;99.90
1702;DHT22;848;48.354;10.064;2023-05-28T08:33:10;24.50;99.90
1702;DHT22;848;48.354;10.064;2023-05-28T08:35:38;24.40;99.90
1702;DHT22;848;48.354;10.064;2023-05-28T08:38:06;24.50;99.90
1702;DHT22;848;48.354;10.064;2023-05-28T08:40:38;24.40;99.90
1702;DHT22;848;48.354;10.064;2023-05-28T08:43:05;24.20;99.90
1702;DHT22;848;48.354;10.064;2023-05-28T08:45:33;24.20;99.90
1702;DHT22;848;48.354;10.064;2023-05-28T08:48:01;24.30;99.90
1702;DHT22;848;48.354;10.064;2023-05-28T08:50:29;24.20;99.90
1702;DHT22;848;48.354;10.064;2023-05-28T08:52:59;24.00;99.90
1702;DHT22;848;48.354;10.064;2023-05-28T08:55:28;23.90;99.90
1702;DHT22;848;48.354;10.064;2023-05-28T08:57:55;24.10;99.90
1702;DHT22;848;48.354;10.064;2023-05-28T09:00:22;24.10;99.90
1702;DHT22;848;48.354;10.064;2023-05-28T09:02:50;23.50;99.90
1702;DHT22;848;48.354;10.064;2023-05-28T09:05:17;22.70;99.90
1702;DHT22;848;48.354;10.064;2023-05-28T09:07:44;22.80;99.90
1702;DHT22;848;48.354;10.064;2023-05-28T09:10:13;23.00;99.90
1702;DHT22;848;48.354;10.064;2023-05-28T09:12:40;23.00;99.90
1702;DHT22;848;48.354;10.064;2023-05-28T09:15:22;22.70;99.90
1702;DHT22;848;48.354;10.064;2023-05-28T09:17:50;22.50;99.90
1702;DHT22;848;48.354;10.064;2023-05-28T09:20:17;22.10;99.90
1702;DHT22;848;48.354;10.064;2023-05-28T09:22:44;22.30;99.90
1702;DHT22;848;48.354;10.064;2023-05-28T09:25:12;22.60;99.90
1702;DHT22;848;48.354;10.064;2023-05-28T09:27:43;23.00;99.90
1702;DHT22;848;48.354;10.064;2023-05-28T09:30:12;23.00;99.90
1702;DHT22;848;48.354;10.064;2023-05-28T09:32:39;22.80;99.90
1702;DHT22;848;48.354;10.064;2023-05-28T09:35:07;22.80;99.90
1702;DHT22;848;48.354;10.064;2023-05-28T09:37:34;22.80;99.90
1702;DHT22;848;48.354;10.064;2023-05-28T09:40:03;22.50;99.90
1702;DHT22;848;48.354;10.064;2023-05-28T09:42:37;22.50;99.90
1702;DHT22;848;48.354;10.064;2023-05-28T09:45:08;22.40;99.90
1702;DHT22;848;48.354;10.064;2023-05-28T09:47:41;22.30;99.90
1702;DHT22;848;48.354;10.064;2023-05-28T09:50:09;22.20;99.90
1702;DHT22;848;48.354;10.064;2023-05-28T09:52:37;22.30;99.90
1702;DHT22;848;48.354;10.064;2023-05-28T09:55:06;22.30;99.90
1702;DHT22;848;48.354;10.064;2023-05-28T09:57:37;22.40;99.90
1702;DHT22;848;48.354;10.064;2023-05-28T10:00:07;22.10;99.90
1702;DHT22;848;48.354;10.064;2023-05-28T10:02:55;22.20;99.90
1702;DHT22;848;48.354;10.064;2023-05-28T10:05:23;22.30;99.90
1702;DHT22;848;48.354;10.064;2023-05-28T10:07:53;22.60;99.90
1702;DHT22;848;48.354;10.064;2023-05-28T10:10:21;22.70;99.90
1702;DHT22;848;48.354;10.064;2023-05-28T10:12:51;22.60;99.90
1702;DHT22;848;48.354;10.064;2023-05-28T10:15:19;22.30;99.90
1702;DHT22;848;48.354;10.064;2023-05-28T10:17:47;22.10;99.90
1702;DHT22;848;48.354;10.064;2023-05-28T10:20:14;21.80;99.90
1702;DHT22;848;48.354;10.064;2023-05-28T10:22:42;21.60;99.90
1702;DHT22;848;48.354;10.064;2023-05-28T10:25:09;21.60;99.90
1702;DHT22;848;48.354;10.064;2023-05-28T10:27:37;21.50;99.90
1702;DHT22;848;48.354;10.064;2023-05-28T10:30:12;21.50;99.90
1702;DHT22;848;48.354;10.064;2023-05-28T10:32:39;21.20;99.90
1702;DHT22;848;48.354;10.064;2023-05-28T10:35:09;21.30;99.90
1702;DHT22;848;48.354;10.064;2023-05-28T10:37:37;21.20;99.90
1702;DHT22;848;48.354;10.064;2023-05-28T10:40:08;21.30;99.90
1702;DHT22;848;48.354;10.064;2023-05-28T10:42:39;21.20;99.90
1702;DHT22;848;48.354;10.064;2023-05-28T10:45:08;21.20;99.90
1702;DHT22;848;48.354;10.064;2023-05-28T10:47:38;21.40;99.90
1702;DHT22;848;48.354;10.064;2023-05-28T10:50:11;21.50;99.90
1702;DHT22;848;48.354;10.064;2023-05-28T10:52:37;21.60;99.90
1702;DHT22;848;48.354;10.064;2023-05-28T10:55:07;21.50;99.90
1702;DHT22;848;48.354;10.064;2023-05-28T10:57:39;21.30;99.90
1702;DHT22;848;48.354;10.064;2023-05-28T11:00:08;21.10;99.90
1702;DHT22;848;48.354;10.064;2023-05-28T11:02:42;21.10;99.90
1702;DHT22;848;48.354;10.064;2023-05-28T11:05:09;21.20;99.90
1702;DHT22;848;48.354;10.064;2023-05-28T11:07:37;21.20;99.90
1702;DHT22;848;48.354;10.064;2023-05-28T11:10:06;21.10;99.90
1702;DHT22;848;48.354;10.064;2023-05-28T11:12:35;21.10;99.90
1702;DHT22;848;48.354;10.064;2023-05-28T11:15:03;21.00;99.90
1702;DHT22;848;48.354;10.064;2023-05-28T11:17:36;21.10;99.90
1702;DHT22;848;48.354;10.064;2023-05-28T11:20:13;21.20;99.90
1702;DHT22;848;48.354;10.064;2023-05-28T11:22:41;21.20;99.90
1702;DHT22;848;48.354;10.064;2023-05-28T11:25:09;21.10;99.90
1702;DHT22;848;48.354;10.064;2023-05-28T11:27:38;21.10;99.90
1702;DHT22;848;48.354;10.064;2023-05-28T11:30:08;21.10;99.90
1702;DHT22;848;48.354;10.064;2023-05-28T11:32:36;21.10;99.90
1702;DHT22;848;48.354;10.064;2023-05-28T11:35:05;20.90;99.90
1702;DHT22;848;48.354;10.064;2023-05-28T11:37:34;21.00;99.90
1702;DHT22;848;48.354;10.064;2023-05-28T11:40:03;21.10;99.90
1702;DHT22;848;48.354;10.064;2023-05-28T11:42:31;21.10;99.90
1702;DHT22;848;48.354;10.064;2023-05-28T11:44:59;21.10;99.90
1702;DHT22;848;48.354;10.064;2023-05-28T11:47:25;21.10;99.90
1702;DHT22;848;48.354;10.064;2023-05-28T11:49:53;21.10;99.90
1702;DHT22;848;48.354;10.064;2023-05-28T11:52:24;21.20;99.90
1702;DHT22;848;48.354;10.064;2023-05-28T11:54:53;21.30;99.90
1702;DHT22;848;48.354;10.064;2023-05-28T11:57:21;21.20;99.90
1702;DHT22;848;48.354;10.064;2023-05-28T11:59:57;21.20;99.90
1702;DHT22;848;48.354;10.064;2023-05-28T12:02:25;21.20;99.90
1702;DHT22;848;48.354;10.064;2023-05-28T12:04:56;21.10;99.90
1702;DHT22;848;48.354;10.064;2023-05-28T12:07:27;21.10;99.90
1702;DHT22;848;48.354;10.064;2023-05-28T12:10:05;21.20;99.90
1702;DHT22;848;48.354;10.064;2023-05-28T12:12:32;21.20;99.90
1702;DHT22;848;48.354;10.064;2023-05-28T12:15:01;21.20;99.90
1702;DHT22;848;48.354;10.064;2023-05-28T12:17:33;21.40;99.90
1702;DHT22;848;48.354;10.064;2023-05-28T12:20:03;21.40;99.90
1702;DHT22;848;48.354;10.064;2023-05-28T12:22:33;21.30;99.90
1702;DHT22;848;48.354;10.064;2023-05-28T12:25:01;21.20;99.90
1702;DHT22;848;48.354;10.064;2023-05-28T12:27:28;21.20;99.90
1702;DHT22;848;48.354;10.064;2023-05-28T12:29:55;21.20;99.90
1702;DHT22;848;48.354;10.064;2023-05-28T12:32:22;21.30;99.90
1702;DHT22;848;48.354;10.064;2023-05-28T12:34:49;21.30;99.90
1702;DHT22;848;48.354;10.064;2023-05-28T12:37:17;21.30;99.90
1702;DHT22;848;48.354;10.064;2023-05-28T12:39:45;21.40;99.90
1702;DHT22;848;48.354;10.064;2023-05-28T12:42:13;21.30;99.90
1702;DHT22;848;48.354;10.064;2023-05-28T12:44:40;21.30;99.90
1702;DHT22;848;48.354;10.064;2023-05-28T12:47:06;21.30;99.90
1702;DHT22;848;48.354;10.064;2023-05-28T12:49:33;21.30;99.90
1702;DHT22;848;48.354;10.064;2023-05-28T12:52:00;21.30;99.90
1702;DHT22;848;48.354;10.064;2023-05-28T12:54:27;21.30;99.90
1702;DHT22;848;48.354;10.064;2023-05-28T12:56:56;21.30;99.90
1702;DHT22;848;48.354;10.064;2023-05-28T12:59:23;21.30;99.90
1702;DHT22;848;48.354;10.064;2023-05-28T13:01:51;21.30;99.90
1702;DHT22;848;48.354;10.064;2023-05-28T13:04:18;21.40;99.90
1702;DHT22;848;48.354;10.064;2023-05-28T13:06:45;21.40;99.90
1702;DHT22;848;48.354;10.064;2023-05-28T13:09:13;21.40;99.90
1702;DHT22;848;48.354;10.064;2023-05-28T13:11:42;21.40;99.90
1702;DHT22;848;48.354;10.064;2023-05-28T13:14:10;21.40;99.90
1702;DHT22;848;48.354;10.064;2023-05-28T13:16:37;21.40;99.90
1702;DHT22;848;48.354;10.064;2023-05-28T13:19:04;21.40;99.90
1702;DHT22;848;48.354;10.064;2023-05-28T13:21:32;21.40;99.90
1702;DHT22;848;48.354;10.064;2023-05-28T13:24:01;21.30;99.90
1702;DHT22;848;48.354;10.064;2023-05-28T13:26:31;21.40;99.00
1702;DHT22;848;48.354;10.064;2023-05-28T13:28:59;21.30;98.70
1702;DHT22;848;48.354;10.064;2023-05-28T13:31:27;21.30;99.40
1702;DHT22;848;48.354;10.064;2023-05-28T13:33:54;21.30;99.90
1702;DHT22;848;48.354;10.064;2023-05-28T13:36:22;21.40;99.20
1702;DHT22;848;48.354;10.064;2023-05-28T13:38:49;21.40;99.00
1702;DHT22;848;48.354;10.064;2023-05-28T13:41:16;21.40;98.10
1702;DHT22;848;48.354;10.064;2023-05-28T13:43:44;21.30;97.90
1702;DHT22;848;48.354;10.064;2023-05-28T13:46:11;21.40;97.20
1702;DHT22;848;48.354;10.064;2023-05-28T13:48:39;21.50;98.20
1702;DHT22;848;48.354;10.064;2023-05-28T13:51:06;21.60;97.20
1702;DHT22;848;48.354;10.064;2023-05-28T13:53:34;21.50;95.50
1702;DHT22;848;48.354;10.064;2023-05-28T13:56:01;21.40;95.00
1702;DHT22;848;48.354;10.064;2023-05-28T13:58:28;21.40;94.60
1702;DHT22;848;48.354;10.064;2023-05-28T14:00:55;21.40;95.20
1702;DHT22;848;48.354;10.064;2023-05-28T14:03:22;21.40;96.10
1702;DHT22;848;48.354;10.064;2023-05-28T14:05:50;21.40;95.20
1702;DHT22;848;48.354;10.064;2023-05-28T14:08:17;21.40;93.80
1702;DHT22;848;48.354;10.064;2023-05-28T14:10:44;21.40;95.60
1702;DHT22;848;48.354;10.064;2023-05-28T14:13:11;21.40;95.70
1702;DHT22;848;48.354;10.064;2023-05-28T14:15:37;21.40;93.50
1702;DHT22;848;48.354;10.064;2023-05-28T14:18:04;21.40;94.50
1702;DHT22;848;48.354;10.064;2023-05-28T14:20:32;21.60;95.20
1702;DHT22;848;48.354;10.064;2023-05-28T14:23:02;21.60;94.30
1702;DHT22;848;48.354;10.064;2023-05-28T14:25:29;21.70;94.80
1702;DHT22;848;48.354;10.064;2023-05-28T14:27:56;21.60;97.00
1702;DHT22;848;48.354;10.064;2023-05-28T14:30:23;21.50;93.50
1702;DHT22;848;48.354;10.064;2023-05-28T14:32:50;21.40;94.20
1702;DHT22;848;48.354;10.064;2023-05-28T14:35:17;21.40;95.20
1702;DHT22;848;48.354;10.064;2023-05-28T14:37:44;21.40;95.50
1702;DHT22;848;48.354;10.064;2023-05-28T14:40:13;21.50;94.90
1702;DHT22;848;48.354;10.064;2023-05-28T14:42:40;21.50;94.50
1702;DHT22;848;48.354;10.064;2023-05-28T14:45:07;21.50;95.10
1702;DHT22;848;48.354;10.064;2023-05-28T14:47:34;21.50;90.70
1702;DHT22;848;48.354;10.064;2023-05-28T14:50:01;21.50;90.80
1702;DHT22;848;48.354;10.064;2023-05-28T14:52:29;21.50;90.90
1702;DHT22;848;48.354;10.064;2023-05-28T14:54:57;21.60;89.60
1702;DHT22;848;48.354;10.064;2023-05-28T14:57:27;21.70;90.90
1702;DHT22;848;48.354;10.064;2023-05-28T14:59:59;21.80;91.20
1702;DHT22;848;48.354;10.064;2023-05-28T15:02:26;21.70;90.90
1702;DHT22;848;48.354;10.064;2023-05-28T15:04:53;21.70;85.80
1702;DHT22;848;48.354;10.064;2023-05-28T15:07:20;21.70;83.30
1702;DHT22;848;48.354;10.064;2023-05-28T15:09:47;21.70;84.00
1702;DHT22;848;48.354;10.064;2023-05-28T15:12:14;21.60;82.50
1702;DHT22;848;48.354;10.064;2023-05-28T15:14:43;21.70;85.90
1702;DHT22;848;48.354;10.064;2023-05-28T15:17:09;21.70;85.20
1702;DHT22;848;48.354;10.064;2023-05-28T15:19:36;21.60;88.50
1702;DHT22;848;48.354;10.064;2023-05-28T15:22:03;21.50;87.20
1702;DHT22;848;48.354;10.064;2023-05-28T15:24:32;21.50;88.70
1702;DHT22;848;48.354;10.064;2023-05-28T15:27:00;21.40;90.90
1702;DHT22;848;48.354;10.064;2023-05-28T15:29:29;21.50;92.20
1702;DHT22;848;48.354;10.064;2023-05-28T15:32:00;21.50;92.00
1702;DHT22;848;48.354;10.064;2023-05-28T15:34:27;21.50;92.10
1702;DHT22;848;48.354;10.064;2023-05-28T15:36:55;21.50;91.30
1702;DHT22;848;48.354;10.064;2023-05-28T15:41:45;21.40;91.50
1702;DHT22;848;48.354;10.064;2023-05-28T15:44:13;21.40;91.20
1702;DHT22;848;48.354;10.064;2023-05-28T15:46:40;21.30;91.10
1702;DHT22;848;48.354;10.064;2023-05-28T15:49:07;21.30;92.60
1702;DHT22;848;48.354;10.064;2023-05-28T15:51:34;21.30;94.20
1702;DHT22;848;48.354;10.064;2023-05-28T15:54:01;21.40;92.60
1702;DHT22;848;48.354;10.064;2023-05-28T15:56:29;21.30;92.00
1702;DHT22;848;48.354;10.064;2023-05-28T15:58:57;21.30;94.10
1702;DHT22;848;48.354;10.064;2023-05-28T16:01:30;21.30;93.90
1702;DHT22;848;48.354;10.064;2023-05-28T16:03:58;21.30;94.50
1702;DHT22;848;48.354;10.064;2023-05-28T16:06:26;21.30;97.20
1702;DHT22;848;48.354;10.064;2023-05-28T16:08:53;21.40;96.30
1702;DHT22;848;48.354;10.064;2023-05-28T16:11:22;21.50;96.80